createdAt,value
2017-11-01T00:00:19.472Z,16.05
2017-11-01T00:00:53.473Z,16.83
2017-11-01T00:01:27.331Z,15.43
2017-11-01T00:02:01.218Z,17.35
2017-11-01T00:02:35.141Z,13.93
2017-11-01T00:03:09.047Z,15.02
2017-11-01T00:03:42.906Z,14.50
2017-11-01T00:04:16.787Z,16.02
2017-11-01T00:04:50.661Z,20.15
2017-11-01T00:05:24.522Z,16.42
2017-11-01T00:05:58.424Z,16.45
2017-11-01T00:06:32.290Z,14.18
2017-11-01T00:07:06.177Z,17.42
2017-11-01T00:07:40.115Z,14.52
2017-11-01T00:08:14.023Z,16.23
2017-11-01T00:08:47.897Z,12.95
2017-11-01T00:09:21.795Z,17.33
2017-11-01T00:09:55.664Z,16.67
2017-11-01T00:10:29.527Z,17.02
2017-11-01T00:11:03.594Z,17.62
2017-11-01T00:11:37.447Z,16.00
2017-11-01T00:12:11.690Z,15.30
2017-11-01T00:12:45.684Z,20.05
2017-11-01T00:13:19.690Z,18.05
2017-11-01T00:13:53.559Z,17.08
2017-11-01T00:14:27.674Z,19.95
2017-11-01T00:15:01.571Z,16.35
2017-11-01T00:15:35.440Z,14.25
2017-11-01T00:16:09.307Z,14.85
2017-11-01T00:16:43.163Z,22.35
2017-11-01T00:17:17.027Z,15.70
2017-11-01T00:17:50.916Z,15.43
2017-11-01T00:18:24.946Z,16.40
2017-11-01T00:18:58.810Z,15.68
2017-11-01T00:19:32.823Z,17.73
2017-11-01T00:20:06.686Z,16.25
2017-11-01T00:20:40.567Z,17.17
2017-11-01T00:21:14.726Z,18.65
2017-11-01T00:21:48.726Z,21.95
2017-11-01T00:22:22.608Z,18.85
2017-11-01T00:22:56.727Z,17.50
2017-11-01T00:23:30.601Z,13.50
2017-11-01T00:24:04.747Z,16.15
2017-11-01T00:24:39.881Z,16.80
2017-11-01T00:25:14.559Z,13.45
2017-11-01T00:25:48.587Z,18.08
2017-11-01T00:26:22.477Z,19.45
2017-11-01T00:26:56.645Z,19.10
2017-11-01T00:27:30.918Z,15.80
2017-11-01T00:28:05.166Z,14.95
2017-11-01T00:28:39.256Z,13.60
2017-11-01T00:29:13.138Z,19.33
2017-11-01T00:29:47.016Z,21.12
2017-11-01T00:30:21.069Z,14.90
2017-11-01T00:30:54.964Z,15.45
2017-11-01T00:31:28.895Z,17.23
2017-11-01T00:32:02.836Z,15.70
2017-11-01T00:32:36.734Z,14.60
2017-11-01T00:33:10.614Z,20.10
2017-11-01T00:33:45.002Z,13.68
2017-11-01T00:34:18.928Z,16.75
2017-11-01T00:34:52.857Z,18.02
2017-11-01T00:35:26.920Z,15.32
2017-11-01T00:36:00.839Z,15.00
2017-11-01T00:36:34.934Z,13.02
2017-11-01T00:37:08.824Z,20.17
2017-11-01T00:37:42.706Z,16.20
2017-11-01T00:38:16.700Z,17.30
2017-11-01T00:38:50.558Z,19.00
2017-11-01T00:39:24.431Z,14.07
2017-11-01T00:39:58.315Z,17.60
2017-11-01T00:40:32.202Z,18.52
2017-11-01T00:41:06.078Z,22.95
2017-11-01T00:41:40.109Z,21.00
2017-11-01T00:42:13.986Z,17.60
2017-11-01T00:42:48.197Z,16.12
2017-11-01T00:43:22.071Z,19.50
2017-11-01T00:43:55.947Z,20.73
2017-11-01T00:44:29.822Z,23.15
2017-11-01T00:45:03.782Z,15.77
2017-11-01T00:45:37.641Z,15.88
2017-11-01T00:46:11.496Z,15.82
2017-11-01T00:46:45.364Z,17.20
2017-11-01T00:47:19.231Z,22.62
2017-11-01T00:47:53.234Z,19.17
2017-11-01T00:48:27.102Z,17.40
2017-11-01T00:49:00.974Z,17.60
2017-11-01T00:49:35.025Z,20.20
2017-11-01T00:50:09.018Z,19.45
2017-11-01T00:50:42.883Z,21.23
2017-11-01T00:51:16.747Z,16.10
2017-11-01T00:51:50.810Z,16.65
2017-11-01T00:52:24.693Z,16.10
2017-11-01T00:52:58.695Z,14.82
2017-11-01T00:53:32.694Z,19.15
2017-11-01T00:54:06.591Z,19.87
2017-11-01T00:54:40.469Z,19.27
2017-11-01T00:55:14.342Z,18.23
2017-11-01T00:55:48.220Z,19.40
2017-11-01T00:56:22.087Z,22.17
2017-11-01T00:56:56.282Z,16.87
2017-11-01T00:57:30.271Z,21.52
2017-11-01T00:58:05.085Z,21.80
2017-11-01T00:58:39.359Z,19.87
2017-11-01T00:59:13.288Z,24.92
2017-11-01T00:59:47.384Z,22.60
2017-11-01T01:00:21.285Z,19.48
2017-11-01T01:00:55.218Z,22.13
2017-11-01T01:01:29.685Z,18.27
2017-11-01T01:02:03.863Z,23.30
2017-11-01T01:02:37.889Z,21.08
2017-11-01T01:03:12.085Z,19.00
2017-11-01T01:03:45.937Z,26.83
2017-11-01T01:04:19.802Z,17.37
2017-11-01T01:04:53.663Z,19.52
2017-11-01T01:05:27.541Z,19.08
2017-11-01T01:06:01.475Z,19.73
2017-11-01T01:06:35.462Z,24.35
2017-11-01T01:07:09.581Z,21.87
2017-11-01T01:07:43.442Z,20.37
2017-11-01T01:08:17.301Z,17.65
2017-11-01T01:08:51.243Z,21.65
2017-11-01T01:09:25.145Z,22.13
2017-11-01T01:09:59.012Z,28.38
2017-11-01T01:10:32.930Z,20.00
2017-11-01T01:11:06.796Z,25.37
2017-11-01T01:11:40.668Z,23.85
2017-11-01T01:12:15.374Z,24.35
2017-11-01T01:12:49.463Z,27.35
2017-11-01T01:13:23.328Z,20.02
2017-11-01T01:13:57.418Z,23.85
2017-11-01T01:14:31.426Z,21.73
2017-11-01T01:15:05.298Z,24.85
2017-11-01T01:15:39.183Z,22.90
2017-11-01T01:16:13.052Z,28.20
2017-11-01T01:16:46.906Z,19.30
2017-11-01T01:17:20.763Z,21.45
2017-11-01T01:17:54.630Z,25.60
2017-11-01T01:18:28.500Z,22.77
2017-11-01T01:19:02.496Z,22.08
2017-11-01T01:19:36.374Z,24.95
2017-11-01T01:20:10.243Z,22.98
2017-11-01T01:20:44.150Z,25.02
2017-11-01T01:21:18.023Z,19.50
2017-11-01T01:21:51.887Z,23.52
2017-11-01T01:22:25.750Z,23.52
2017-11-01T01:22:59.628Z,24.98
2017-11-01T01:23:33.483Z,23.50
2017-11-01T01:24:07.374Z,26.40
2017-11-01T01:24:41.245Z,28.15
2017-11-01T01:25:15.170Z,27.35
2017-11-01T01:25:49.053Z,24.90
2017-11-01T01:26:23.026Z,28.12
2017-11-01T01:26:56.888Z,27.23
2017-11-01T01:27:30.828Z,32.95
2017-11-01T01:28:04.823Z,25.45
2017-11-01T01:28:38.734Z,27.67
2017-11-01T01:29:12.707Z,27.10
2017-11-01T01:29:46.612Z,28.52
2017-11-01T01:30:20.523Z,23.58
2017-11-01T01:30:54.706Z,23.23
2017-11-01T01:31:28.575Z,30.85
2017-11-01T01:32:02.491Z,26.67
2017-11-01T01:32:36.348Z,28.77
2017-11-01T01:33:10.205Z,27.52
2017-11-01T01:33:44.179Z,31.20
2017-11-01T01:34:18.046Z,26.35
2017-11-01T01:34:51.964Z,27.10
2017-11-01T01:35:25.850Z,26.80
2017-11-01T01:36:03.361Z,26.42
2017-11-01T01:36:37.214Z,29.67
2017-11-01T01:37:11.146Z,28.00
2017-11-01T01:37:45.004Z,29.87
2017-11-01T01:38:18.871Z,25.90
2017-11-01T01:38:52.819Z,29.23
2017-11-01T01:39:26.687Z,27.48
2017-11-01T01:40:00.550Z,28.30
2017-11-01T01:40:34.930Z,31.50
2017-11-01T01:41:08.810Z,28.65
2017-11-01T01:41:42.671Z,23.55
2017-11-01T01:42:16.543Z,35.65
2017-11-01T01:42:50.519Z,36.88
2017-11-01T01:43:24.383Z,29.25
2017-11-01T01:43:58.906Z,31.83
2017-11-01T01:44:32.894Z,30.67
2017-11-01T01:45:07.721Z,29.80
2017-11-01T01:45:41.843Z,29.73
2017-11-01T01:46:15.707Z,30.55
2017-11-01T01:46:49.703Z,32.22
2017-11-01T01:47:23.559Z,30.33
2017-11-01T01:47:57.516Z,33.85
2017-11-01T01:48:31.401Z,33.33
2017-11-01T01:49:05.290Z,33.42
2017-11-01T01:49:39.183Z,34.70
2017-11-01T01:50:13.078Z,30.67
2017-11-01T01:50:46.966Z,32.58
2017-11-01T01:51:21.165Z,29.50
2017-11-01T01:51:55.028Z,31.80
2017-11-01T01:52:29.066Z,34.85
2017-11-01T01:53:02.925Z,34.10
2017-11-01T01:53:37.062Z,27.75
2017-11-01T01:54:10.954Z,30.77
2017-11-01T01:54:45.003Z,29.40
2017-11-01T01:55:18.930Z,29.00
2017-11-01T01:55:52.820Z,31.95
2017-11-01T01:56:26.702Z,31.65
2017-11-01T01:57:00.643Z,30.20
2017-11-01T01:57:34.514Z,29.60
2017-11-01T01:58:08.409Z,32.35
2017-11-01T01:58:42.291Z,30.77
2017-11-01T01:59:16.171Z,34.80
2017-11-01T01:59:50.026Z,35.53
2017-11-01T02:00:23.891Z,28.67
2017-11-01T02:00:57.766Z,31.85
2017-11-01T02:01:31.901Z,36.10
2017-11-01T02:02:05.749Z,30.77
2017-11-01T02:02:39.611Z,32.00
2017-11-01T02:03:13.479Z,37.10
2017-11-01T02:03:47.341Z,37.97
2017-11-01T02:04:21.202Z,34.33
2017-11-01T02:04:55.065Z,31.67
2017-11-01T02:05:28.974Z,33.80
2017-11-01T02:06:02.831Z,37.97
2017-11-01T02:06:36.702Z,39.35
2017-11-01T02:07:10.572Z,35.75
2017-11-01T02:07:44.553Z,33.17
2017-11-01T02:08:18.407Z,31.27
2017-11-01T02:08:52.667Z,32.90
2017-11-01T02:09:26.527Z,26.27
2017-11-01T02:10:00.435Z,31.95
2017-11-01T02:10:34.449Z,31.50
2017-11-01T02:11:08.337Z,31.98
2017-11-01T02:11:42.223Z,30.12
2017-11-01T02:12:16.087Z,34.47
2017-11-01T02:12:50.134Z,27.87
2017-11-01T02:13:24.026Z,30.90
2017-11-01T02:13:57.886Z,30.77
2017-11-01T02:14:31.749Z,35.35
2017-11-01T02:15:05.800Z,29.50
2017-11-01T02:15:39.791Z,28.85
2017-11-01T02:16:13.672Z,31.48
2017-11-01T02:16:47.590Z,36.08
2017-11-01T02:17:21.682Z,33.30
2017-11-01T02:17:55.540Z,33.25
2017-11-01T02:18:29.480Z,34.17
2017-11-01T02:19:03.333Z,30.27
2017-11-01T02:19:37.202Z,39.25
2017-11-01T02:20:11.062Z,29.90
2017-11-01T02:20:44.922Z,28.85
2017-11-01T02:21:18.772Z,36.08
2017-11-01T02:21:52.646Z,31.73
2017-11-01T02:22:26.507Z,29.95
2017-11-01T02:23:00.373Z,35.22
2017-11-01T02:23:34.234Z,29.70
2017-11-01T02:24:08.214Z,32.15
2017-11-01T02:24:42.071Z,33.97
2017-11-01T02:25:16.017Z,29.35
2017-11-01T02:25:49.886Z,33.08
2017-11-01T02:26:23.741Z,33.88
2017-11-01T02:26:57.626Z,33.90
2017-11-01T02:27:31.497Z,28.87
2017-11-01T02:28:05.366Z,30.70
2017-11-01T02:28:39.251Z,34.47
2017-11-01T02:29:13.692Z,32.67
2017-11-01T02:29:47.892Z,33.85
2017-11-01T02:30:22.650Z,31.95
2017-11-01T02:30:56.606Z,32.92
2017-11-01T02:31:31.020Z,33.63
2017-11-01T02:32:06.691Z,35.25
2017-11-01T02:32:41.468Z,36.20
2017-11-01T02:33:16.392Z,36.70
2017-11-01T02:33:50.487Z,35.20
2017-11-01T02:34:24.896Z,34.97
2017-11-01T02:34:59.304Z,30.08
2017-11-01T02:35:33.186Z,30.75
2017-11-01T02:36:07.041Z,31.30
2017-11-01T02:36:40.893Z,37.10
2017-11-01T02:37:14.779Z,37.55
2017-11-01T02:37:48.686Z,34.00
2017-11-01T02:38:22.675Z,36.22
2017-11-01T02:38:56.677Z,35.45
2017-11-01T02:39:30.545Z,36.33
2017-11-01T02:40:04.420Z,33.15
2017-11-01T02:40:38.285Z,37.40
2017-11-01T02:41:12.147Z,36.42
2017-11-01T02:41:46.046Z,33.65
2017-11-01T02:42:19.915Z,35.83
2017-11-01T02:42:53.780Z,33.28
2017-11-01T02:43:27.732Z,35.60
2017-11-01T02:44:01.595Z,34.83
2017-11-01T02:44:35.449Z,37.72
2017-11-01T02:45:09.305Z,35.60
2017-11-01T02:45:43.175Z,36.65
2017-11-01T02:46:17.046Z,38.35
2017-11-01T02:46:50.916Z,34.13
2017-11-01T02:47:24.794Z,34.78
2017-11-01T02:47:58.665Z,38.60
2017-11-01T02:48:32.534Z,42.05
2017-11-01T02:49:06.402Z,37.15
2017-11-01T02:49:40.375Z,34.20
2017-11-01T02:50:14.237Z,37.50
2017-11-01T02:50:48.106Z,37.70
2017-11-01T02:51:21.975Z,36.90
2017-11-01T02:51:55.833Z,41.63
2017-11-01T02:52:29.723Z,36.38
2017-11-01T02:53:03.606Z,41.05
2017-11-01T02:53:37.464Z,39.80
2017-11-01T02:54:11.331Z,33.75
2017-11-01T02:54:45.233Z,39.38
2017-11-01T02:55:19.094Z,37.20
2017-11-01T02:55:52.946Z,35.30
2017-11-01T02:56:26.814Z,37.05
2017-11-01T02:57:00.810Z,37.42
2017-11-01T02:57:34.670Z,38.25
2017-11-01T02:58:08.804Z,37.30
2017-11-01T02:58:42.665Z,34.80
2017-11-01T02:59:16.522Z,36.70
2017-11-01T02:59:50.798Z,34.95
2017-11-01T03:00:24.918Z,40.58
2017-11-01T03:00:58.798Z,39.20
2017-11-01T03:01:32.666Z,36.72
2017-11-01T03:02:06.525Z,35.67
2017-11-01T03:02:40.422Z,43.03
2017-11-01T03:03:14.275Z,39.00
2017-11-01T03:03:48.126Z,36.90
2017-11-01T03:04:21.981Z,36.22
2017-11-01T03:04:55.861Z,35.35
2017-11-01T03:05:29.731Z,42.20
2017-11-01T03:06:03.597Z,36.15
2017-11-01T03:06:37.539Z,40.42
2017-11-01T03:07:11.398Z,38.42
2017-11-01T03:07:45.275Z,35.25
2017-11-01T03:08:19.146Z,35.00
2017-11-01T03:08:53.008Z,43.78
2017-11-01T03:09:26.862Z,39.63
2017-11-01T03:10:01.218Z,39.88
2017-11-01T03:10:35.116Z,39.42
2017-11-01T03:11:09.014Z,38.47
2017-11-01T03:11:42.882Z,34.85
2017-11-01T03:12:16.739Z,34.88
2017-11-01T03:12:50.633Z,36.05
2017-11-01T03:13:24.503Z,35.88
2017-11-01T03:13:58.367Z,36.80
2017-11-01T03:14:32.231Z,40.65
2017-11-01T03:15:06.285Z,37.20
2017-11-01T03:15:40.152Z,34.75
2017-11-01T03:16:14.018Z,37.47
2017-11-01T03:16:47.878Z,35.47
2017-11-01T03:17:21.741Z,35.78
2017-11-01T03:17:55.595Z,38.10
2017-11-01T03:18:29.465Z,37.83
2017-11-01T03:19:03.330Z,36.15
2017-11-01T03:19:37.339Z,38.92
2017-11-01T03:20:11.208Z,33.00
2017-11-01T03:20:45.232Z,30.75
2017-11-01T03:21:19.100Z,37.80
2017-11-01T03:21:52.953Z,34.08
2017-11-01T03:22:26.918Z,33.92
2017-11-01T03:23:00.799Z,36.63
2017-11-01T03:23:34.670Z,40.65
2017-11-01T03:24:08.537Z,37.65
2017-11-01T03:24:42.392Z,38.17
2017-11-01T03:25:16.390Z,47.95
2017-11-01T03:25:50.242Z,38.10
2017-11-01T03:26:24.103Z,38.63
2017-11-01T03:26:57.962Z,35.15
2017-11-01T03:27:31.813Z,40.78
2017-11-01T03:28:05.677Z,42.22
2017-11-01T03:28:39.551Z,36.80
2017-11-01T03:29:13.683Z,36.65
2017-11-01T03:29:47.566Z,42.50
2017-11-01T03:30:21.426Z,37.53
2017-11-01T03:30:55.292Z,36.83
2017-11-01T03:31:29.159Z,37.15
2017-11-01T03:32:03.022Z,38.10
2017-11-01T03:32:36.889Z,40.95
2017-11-01T03:33:10.780Z,32.47
2017-11-01T03:33:44.819Z,37.42
2017-11-01T03:34:18.682Z,38.70
2017-11-01T03:34:52.813Z,36.63
2017-11-01T03:35:26.671Z,36.10
2017-11-01T03:36:00.529Z,33.88
2017-11-01T03:36:34.393Z,33.55
2017-11-01T03:37:08.294Z,37.05
2017-11-01T03:37:42.164Z,40.33
2017-11-01T03:38:16.807Z,38.97
2017-11-01T03:38:50.662Z,35.08
2017-11-01T03:39:25.387Z,37.22
2017-11-01T03:39:59.306Z,40.97
2017-11-01T03:40:33.164Z,35.00
2017-11-01T03:41:07.310Z,35.80
2017-11-01T03:41:41.189Z,34.60
2017-11-01T03:42:15.062Z,35.00
2017-11-01T03:42:48.917Z,32.05
2017-11-01T03:43:22.984Z,36.10
2017-11-01T03:43:56.841Z,36.78
2017-11-01T03:44:30.710Z,37.33
2017-11-01T03:45:04.785Z,36.75
2017-11-01T03:45:38.650Z,35.55
2017-11-01T03:46:12.668Z,34.30
2017-11-01T03:46:46.524Z,37.40
2017-11-01T03:47:20.715Z,33.90
2017-11-01T03:47:54.574Z,34.25
2017-11-01T03:48:28.466Z,33.67
2017-11-01T03:49:02.331Z,36.08
2017-11-01T03:49:36.197Z,33.30
2017-11-01T03:50:10.345Z,37.17
2017-11-01T03:50:44.444Z,34.28
2017-11-01T03:51:18.308Z,38.83
2017-11-01T03:51:52.183Z,31.25
2017-11-01T03:52:26.130Z,36.92
2017-11-01T03:53:00.039Z,32.42
2017-11-01T03:53:33.915Z,37.63
2017-11-01T03:54:07.927Z,34.47
2017-11-01T03:54:41.807Z,33.88
2017-11-01T03:55:15.674Z,38.33
2017-11-01T03:55:49.808Z,36.55
2017-11-01T03:56:23.670Z,32.00
2017-11-01T03:56:57.806Z,34.28
2017-11-01T03:57:31.670Z,32.65
2017-11-01T03:58:05.698Z,34.80
2017-11-01T03:58:39.590Z,34.13
2017-11-01T03:59:13.467Z,35.05
2017-11-01T03:59:47.328Z,32.58
2017-11-01T04:00:21.199Z,39.20
2017-11-01T04:00:55.060Z,35.20
2017-11-01T04:01:28.909Z,32.53
2017-11-01T04:02:02.774Z,35.17
2017-11-01T04:02:36.859Z,40.78
2017-11-01T04:03:10.713Z,30.85
2017-11-01T04:03:44.583Z,35.47
2017-11-01T04:04:18.444Z,37.05
2017-11-01T04:04:52.293Z,34.83
2017-11-01T04:05:26.222Z,36.95
2017-11-01T04:06:00.083Z,29.92
2017-11-01T04:06:33.948Z,33.63
2017-11-01T04:07:07.814Z,31.92
2017-11-01T04:07:41.673Z,30.62
2017-11-01T04:08:15.536Z,34.30
2017-11-01T04:08:49.425Z,35.15
2017-11-01T04:09:23.297Z,30.40
2017-11-01T04:09:57.153Z,29.35
2017-11-01T04:10:31.014Z,30.27
2017-11-01T04:11:05.391Z,34.78
2017-11-01T04:11:39.258Z,36.38
2017-11-01T04:12:13.181Z,31.05
2017-11-01T04:12:47.059Z,31.95
2017-11-01T04:13:20.925Z,28.12
2017-11-01T04:13:54.795Z,28.10
2017-11-01T04:14:28.651Z,28.95
2017-11-01T04:15:02.562Z,32.75
2017-11-01T04:15:36.431Z,32.03
2017-11-01T04:16:13.111Z,27.73
2017-11-01T04:16:46.981Z,31.70
2017-11-01T04:17:21.775Z,31.48
2017-11-01T04:18:03.238Z,26.95
2017-11-01T04:18:38.024Z,27.90
2017-11-01T04:19:17.741Z,26.50
2017-11-01T04:19:51.604Z,26.65
2017-11-01T04:20:26.496Z,30.48
2017-11-01T04:21:00.361Z,27.37
2017-11-01T04:21:34.218Z,32.38
2017-11-01T04:22:08.085Z,31.15
2017-11-01T04:22:41.946Z,28.33
2017-11-01T04:23:16.683Z,26.50
2017-11-01T04:23:50.551Z,32.33
2017-11-01T04:24:24.562Z,32.90
2017-11-01T04:24:58.558Z,26.27
2017-11-01T04:25:32.542Z,32.15
2017-11-01T04:26:06.402Z,26.45
2017-11-01T04:26:40.339Z,25.30
2017-11-01T04:27:14.231Z,24.92
2017-11-01T04:27:48.096Z,29.73
2017-11-01T04:28:21.983Z,32.20
2017-11-01T04:28:55.865Z,26.45
2017-11-01T04:29:29.755Z,29.67
2017-11-01T04:30:03.926Z,23.95
2017-11-01T04:30:38.014Z,26.37
2017-11-01T04:31:12.112Z,23.62
2017-11-01T04:31:46.141Z,24.20
2017-11-01T04:32:20.003Z,23.73
2017-11-01T04:32:53.848Z,26.75
2017-11-01T04:33:27.713Z,24.70
2017-11-01T04:34:01.683Z,23.90
2017-11-01T04:34:35.682Z,24.33
2017-11-01T04:35:09.535Z,25.80
2017-11-01T04:35:43.400Z,24.95
2017-11-01T04:36:17.365Z,25.35
2017-11-01T04:36:51.226Z,25.33
2017-11-01T04:37:25.085Z,27.65
2017-11-01T04:37:59.156Z,21.92
2017-11-01T04:38:33.459Z,24.25
2017-11-01T04:39:07.319Z,25.95
2017-11-01T04:39:41.207Z,26.80
2017-11-01T04:40:15.065Z,26.42
2017-11-01T04:40:48.927Z,23.92
2017-11-01T04:41:22.790Z,25.17
2017-11-01T04:41:56.642Z,26.48
2017-11-01T04:42:30.498Z,25.70
2017-11-01T04:43:04.374Z,32.00
2017-11-01T04:43:38.246Z,24.30
2017-11-01T04:44:12.741Z,21.62
2017-11-01T04:44:46.653Z,29.58
2017-11-01T04:45:20.507Z,28.75
2017-11-01T04:45:54.365Z,24.40
2017-11-01T04:46:28.402Z,25.27
2017-11-01T04:47:02.272Z,21.40
2017-11-01T04:47:36.138Z,21.00
2017-11-01T04:48:12.762Z,27.83
2017-11-01T04:48:46.612Z,25.30
2017-11-01T04:49:20.477Z,24.80
2017-11-01T04:49:54.545Z,24.50
2017-11-01T04:50:29.153Z,25.98
2017-11-01T04:51:09.538Z,27.35
2017-11-01T04:51:57.882Z,21.02
2017-11-01T04:52:35.517Z,23.35
2017-11-01T04:53:09.421Z,24.58
2017-11-01T04:53:43.281Z,23.12
2017-11-01T04:54:17.135Z,19.30
2017-11-01T04:54:51.002Z,25.23
2017-11-01T04:55:25.197Z,23.20
2017-11-01T04:55:59.050Z,20.98
2017-11-01T04:56:33.093Z,20.80
2017-11-01T04:57:06.982Z,24.15
2017-11-01T04:57:40.839Z,24.40
2017-11-01T04:58:14.713Z,20.75
2017-11-01T04:58:48.571Z,21.62
2017-11-01T04:59:23.261Z,24.25
2017-11-01T05:00:04.178Z,23.60
2017-11-01T05:00:42.932Z,25.05
2017-11-01T05:01:18.715Z,25.48
2017-11-01T05:01:54.534Z,20.83
2017-11-01T05:02:34.054Z,22.85
2017-11-01T05:03:11.767Z,19.45
2017-11-01T05:03:45.629Z,21.42
2017-11-01T05:04:19.521Z,24.50
2017-11-01T05:04:53.372Z,24.35
2017-11-01T05:05:27.982Z,19.02
2017-11-01T05:06:01.848Z,21.62
2017-11-01T05:06:47.327Z,23.02
2017-11-01T05:07:21.314Z,24.08
2017-11-01T05:07:55.170Z,25.60
2017-11-01T05:08:34.800Z,22.35
2017-11-01T05:09:12.826Z,24.33
2017-11-01T05:09:46.681Z,22.35
2017-11-01T05:10:23.276Z,23.30
2017-11-01T05:10:57.137Z,19.90
2017-11-01T05:11:36.754Z,22.23
2017-11-01T05:12:14.394Z,27.05
2017-11-01T05:12:53.194Z,21.70
2017-11-01T05:13:27.061Z,23.38
2017-11-01T05:14:02.821Z,24.98
2017-11-01T05:14:36.818Z,23.85
2017-11-01T05:15:13.687Z,25.33
2017-11-01T05:15:47.542Z,21.85
2017-11-01T05:16:21.475Z,18.05
2017-11-01T05:16:56.254Z,20.00
2017-11-01T05:17:30.120Z,23.10
2017-11-01T05:18:04.886Z,24.50
2017-11-01T05:18:38.995Z,25.52
2017-11-01T05:19:15.871Z,19.45
2017-11-01T05:19:49.738Z,19.23
2017-11-01T05:20:23.654Z,23.38
2017-11-01T05:20:57.520Z,19.95
2017-11-01T05:21:31.388Z,22.95
2017-11-01T05:22:05.450Z,17.58
2017-11-01T05:22:39.325Z,24.52
2017-11-01T05:23:15.194Z,19.52
2017-11-01T05:23:49.177Z,19.95
2017-11-01T05:24:23.042Z,21.60
2017-11-01T05:24:58.819Z,21.25
2017-11-01T05:25:48.519Z,21.33
2017-11-01T05:26:22.388Z,20.25
2017-11-01T05:26:56.255Z,21.45
2017-11-01T05:27:30.168Z,22.50
2017-11-01T05:28:04.269Z,20.30
2017-11-01T05:28:38.259Z,22.35
2017-11-01T05:29:12.118Z,25.35
2017-11-01T05:29:45.966Z,21.37
2017-11-01T05:30:19.846Z,22.95
2017-11-01T05:30:53.842Z,20.48
2017-11-01T05:31:27.961Z,22.20
2017-11-01T05:32:02.764Z,25.30
2017-11-01T05:32:36.765Z,21.33
2017-11-01T05:33:10.647Z,23.98
2017-11-01T05:33:44.518Z,18.55
2017-11-01T05:34:18.400Z,26.00
2017-11-01T05:34:52.265Z,19.90
2017-11-01T05:35:26.132Z,25.62
2017-11-01T05:36:00.024Z,22.02
2017-11-01T05:36:33.935Z,24.40
2017-11-01T05:37:07.804Z,18.73
2017-11-01T05:37:41.821Z,25.58
2017-11-01T05:38:15.930Z,23.52
2017-11-01T05:38:49.791Z,22.37
2017-11-01T05:39:23.655Z,21.20
2017-11-01T05:39:57.508Z,21.90
2017-11-01T05:40:31.373Z,24.87
2017-11-01T05:41:05.697Z,23.40
2017-11-01T05:41:39.603Z,21.50
2017-11-01T05:42:13.476Z,21.90
2017-11-01T05:42:47.692Z,21.10
2017-11-01T05:43:21.608Z,19.33
2017-11-01T05:43:55.466Z,24.37
2017-11-01T05:44:29.375Z,18.35
2017-11-01T05:45:03.275Z,22.87
2017-11-01T05:45:37.250Z,24.25
2017-11-01T05:46:11.118Z,21.60
2017-11-01T05:46:45.270Z,22.73
2017-11-01T05:47:19.179Z,22.27
2017-11-01T05:47:53.091Z,22.15
2017-11-01T05:48:26.955Z,22.27
2017-11-01T05:49:00.831Z,23.87
2017-11-01T05:49:34.739Z,19.85
2017-11-01T05:50:11.475Z,21.10
2017-11-01T05:50:45.340Z,22.23
2017-11-01T05:51:19.193Z,22.60
2017-11-01T05:51:53.061Z,22.40
2017-11-01T05:52:26.929Z,23.15
2017-11-01T05:53:00.801Z,20.45
2017-11-01T05:53:34.660Z,22.65
2017-11-01T05:54:08.577Z,20.12
2017-11-01T05:54:42.443Z,21.98
2017-11-01T05:55:16.287Z,18.48
2017-11-01T05:55:50.146Z,23.23
2017-11-01T05:56:24.168Z,19.42
2017-11-01T05:56:58.040Z,20.75
2017-11-01T05:57:31.907Z,21.60
2017-11-01T05:58:08.605Z,19.50
2017-11-01T05:58:42.492Z,19.52
2017-11-01T05:59:16.367Z,18.92
2017-11-01T05:59:50.389Z,18.52
2017-11-01T06:00:24.288Z,20.95
2017-11-01T06:00:58.137Z,21.40
2017-11-01T06:01:32.054Z,21.10
2017-11-01T06:02:05.909Z,19.75
2017-11-01T06:02:39.760Z,18.60
2017-11-01T06:03:13.688Z,17.27
2017-11-01T06:03:47.560Z,22.05
2017-11-01T06:04:21.426Z,22.08
2017-11-01T06:04:55.299Z,20.20
2017-11-01T06:05:29.163Z,18.00
2017-11-01T06:06:03.028Z,17.98
2017-11-01T06:06:36.881Z,17.17
2017-11-01T06:07:10.745Z,19.98
2017-11-01T06:07:44.615Z,20.52
2017-11-01T06:08:18.918Z,17.87
2017-11-01T06:08:52.805Z,17.95
2017-11-01T06:09:26.702Z,18.70
2017-11-01T06:10:00.788Z,18.33
2017-11-01T06:10:34.646Z,17.02
2017-11-01T06:11:08.515Z,17.60
2017-11-01T06:11:42.390Z,20.40
2017-11-01T06:12:16.265Z,18.80
2017-11-01T06:12:50.135Z,18.17
2017-11-01T06:13:24.049Z,18.45
2017-11-01T06:13:57.909Z,20.62
2017-11-01T06:14:31.867Z,18.80
2017-11-01T06:15:05.739Z,19.37
2017-11-01T06:15:39.764Z,20.12
2017-11-01T06:16:13.641Z,21.50
2017-11-01T06:16:47.499Z,22.02
2017-11-01T06:17:21.369Z,19.23
2017-11-01T06:17:55.444Z,19.65
2017-11-01T06:18:29.781Z,18.85
2017-11-01T06:19:03.642Z,20.67
2017-11-01T06:19:37.512Z,17.62
2017-11-01T06:20:11.398Z,17.27
2017-11-01T06:20:45.265Z,18.98
2017-11-01T06:21:19.120Z,19.23
2017-11-01T06:21:53.006Z,17.40
2017-11-01T06:22:26.877Z,17.98
2017-11-01T06:23:00.747Z,18.62
2017-11-01T06:23:34.642Z,22.52
2017-11-01T06:24:08.503Z,21.62
2017-11-01T06:24:42.494Z,22.62
2017-11-01T06:25:16.349Z,16.77
2017-11-01T06:25:50.217Z,17.15
2017-11-01T06:26:24.178Z,20.27
2017-11-01T06:26:58.047Z,21.10
2017-11-01T06:27:31.908Z,21.10
2017-11-01T06:28:05.774Z,18.83
2017-11-01T06:28:39.634Z,22.62
2017-11-01T06:29:13.498Z,20.40
2017-11-01T06:29:47.379Z,17.48
2017-11-01T06:30:21.239Z,16.65
2017-11-01T06:30:55.102Z,19.77
2017-11-01T06:31:28.968Z,18.25
2017-11-01T06:32:02.826Z,20.58
2017-11-01T06:32:36.821Z,17.87
2017-11-01T06:33:10.688Z,21.35
2017-11-01T06:33:44.566Z,19.27
2017-11-01T06:34:18.512Z,23.83
2017-11-01T06:34:52.373Z,17.20
2017-11-01T06:35:26.242Z,19.30
2017-11-01T06:36:00.111Z,18.45
2017-11-01T06:36:33.966Z,16.87
2017-11-01T06:37:07.860Z,18.48
2017-11-01T06:37:43.702Z,19.05
2017-11-01T06:38:17.631Z,18.15
2017-11-01T06:38:51.616Z,20.58
2017-11-01T06:39:25.483Z,17.58
2017-11-01T06:39:59.521Z,17.30
2017-11-01T06:40:33.404Z,17.30
2017-11-01T06:41:07.290Z,20.48
2017-11-01T06:41:41.157Z,17.92
2017-11-01T06:42:15.151Z,20.25
2017-11-01T06:42:49.060Z,17.10
2017-11-01T06:43:22.972Z,19.25
2017-11-01T06:43:57.724Z,19.25
2017-11-01T06:44:31.602Z,16.73
2017-11-01T06:45:05.477Z,19.77
2017-11-01T06:45:39.349Z,19.77
2017-11-01T06:46:13.220Z,19.67
2017-11-01T06:46:47.156Z,18.95
2017-11-01T06:47:21.139Z,19.65
2017-11-01T06:47:54.998Z,19.12
2017-11-01T06:48:28.855Z,17.40
2017-11-01T06:49:02.735Z,21.95
2017-11-01T06:49:36.634Z,18.20
2017-11-01T06:50:10.524Z,18.58
2017-11-01T06:50:44.644Z,18.37
2017-11-01T06:51:18.535Z,20.95
2017-11-01T06:51:52.471Z,22.52
2017-11-01T06:52:26.346Z,17.45
2017-11-01T06:53:00.218Z,20.77
2017-11-01T06:53:34.199Z,20.48
2017-11-01T06:54:08.078Z,20.73
2017-11-01T06:54:42.025Z,19.02
2017-11-01T06:55:16.298Z,20.23
2017-11-01T06:55:50.317Z,20.05
2017-11-01T06:56:25.142Z,21.70
2017-11-01T06:56:59.001Z,19.95
2017-11-01T06:57:32.877Z,17.98
2017-11-01T06:58:06.729Z,18.40
2017-11-01T06:58:40.580Z,19.08
2017-11-01T06:59:14.451Z,18.27
2017-11-01T06:59:48.308Z,17.87
2017-11-01T07:00:27.856Z,16.98
2017-11-01T07:01:01.729Z,20.62
2017-11-01T07:01:35.581Z,21.48
2017-11-01T07:02:09.453Z,22.25
2017-11-01T07:02:43.441Z,21.77
2017-11-01T07:03:18.115Z,21.52
2017-11-01T07:03:52.049Z,21.65
2017-11-01T07:04:27.961Z,16.17
2017-11-01T07:05:01.858Z,20.40
2017-11-01T07:05:35.726Z,19.20
2017-11-01T07:06:09.600Z,18.12
2017-11-01T07:06:43.485Z,18.48
2017-11-01T07:07:17.441Z,17.30
2017-11-01T07:07:51.729Z,17.77
2017-11-01T07:08:27.538Z,21.02
2017-11-01T07:09:01.643Z,15.82
2017-11-01T07:09:51.176Z,18.42
2017-11-01T07:10:25.077Z,18.42
2017-11-01T07:10:58.946Z,19.12
2017-11-01T07:11:32.821Z,18.17
2017-11-01T07:12:06.686Z,15.65
2017-11-01T07:12:40.724Z,20.02
2017-11-01T07:13:14.595Z,16.90
2017-11-01T07:13:48.453Z,18.15
2017-11-01T07:14:22.411Z,17.90
2017-11-01T07:14:56.623Z,20.33
2017-11-01T07:15:30.501Z,20.55
2017-11-01T07:17:01.067Z,18.30
2017-11-01T07:17:35.028Z,18.27
2017-11-01T07:18:08.905Z,23.05
2017-11-01T07:18:42.831Z,19.45
2017-11-01T07:19:16.698Z,21.35
2017-11-01T07:19:50.572Z,18.05
2017-11-01T07:20:24.629Z,19.95
2017-11-01T07:20:58.534Z,21.92